Time;durP1;ratioP1;P1;durP2;ratioP2;P2;SDS_P1;SDS_P2;PMS_P1;PMS_P2;Temp;Humidity;BMP_temperature;BMP_pressure;BME280_temperature;BME280_humidity;BME280_pressure;Samples;Min_cycle;Max_cycle;Signal;HPM_P1;HPM_P2
2023/05/09 00:01:16;;;;;;;;;;;;;;;16.17;nan;102629.09;5008892;28;20630;-83
2023/05/09 00:03:41;;;;;;;;;;;;;;;16.13;nan;102628.72;5001750;28;20036;-82
2023/05/09 00:06:07;;;;;;;;;;;;;;;16.07;nan;102628.88;5008787;28;19922;-83
2023/05/09 00:08:33;;;;;;;;;;;;;;;15.99;nan;102627.38;5009649;28;19925;-82
2023/05/09 00:10:58;;;;;;;;;;;;;;;15.91;nan;102625.03;5008539;28;19925;-82
2023/05/09 00:13:24;;;;;;;;;;;;;;;15.83;nan;102620.00;5001870;28;19932;-82
2023/05/09 00:15:52;;;;;;;;;;;;;;;15.79;nan;102616.09;5004729;28;19922;-83
2023/05/09 00:18:18;;;;;;;;;;;;;;;15.73;nan;102612.47;5008608;28;20188;-82
2023/05/09 00:20:43;;;;;;;;;;;;;;;15.69;nan;102612.13;5001761;28;19917;-82
2023/05/09 00:23:09;;;;;;;;;;;;;;;15.63;nan;102612.28;5004311;28;20280;-83
2023/05/09 00:25:34;;;;;;;;;;;;;;;15.59;nan;102611.91;5004681;28;19925;-82
2023/05/09 00:28:00;;;;;;;;;;;;;;;15.55;nan;102604.47;5000455;28;20375;-82
2023/05/09 00:30:25;;;;;;;;;;;;;;;15.49;nan;102605.44;5005294;28;19928;-82
2023/05/09 00:32:50;;;;;;;;;;;;;;;15.42;nan;102603.66;5003899;28;19925;-82
2023/05/09 00:35:16;;;;;;;;;;;;;;;15.38;nan;102605.19;5005789;28;19929;-83
2023/05/09 00:37:41;;;;;;;;;;;;;;;15.37;nan;102611.63;5006523;28;19979;-82
2023/05/09 00:40:08;;;;;;;;;;;;;;;15.38;nan;102607.88;5005776;28;19960;-83
2023/05/09 00:42:34;;;;;;;;;;;;;;;15.40;nan;102611.16;5008728;28;20009;-83
2023/05/09 00:44:59;;;;;;;;;;;;;;;15.37;nan;102608.94;5000960;28;20353;-83
2023/05/09 00:47:26;;;;;;;;;;;;;;;15.40;nan;102602.25;5008667;28;19928;-83
2023/05/09 00:49:51;;;;;;;;;;;;;;;15.41;nan;102599.31;5004923;28;19925;-83
2023/05/09 00:52:20;;;;;;;;;;;;;;;15.45;nan;102598.84;5005597;28;20429;-82
2023/05/09 00:54:45;;;;;;;;;;;;;;;15.43;nan;102601.78;5005253;28;20379;-82
2023/05/09 00:57:11;;;;;;;;;;;;;;;15.39;nan;102596.03;5002080;28;19925;-83
2023/05/09 00:59:36;;;;;;;;;;;;;;;15.39;nan;102596.03;5002058;28;20030;-82
2023/05/09 01:02:38;;;;;;;;;;;;;;;15.40;nan;102597.66;5001784;28;20526;-82
2023/05/09 01:08:11;;;;;;;;;;;;;;;15.41;nan;102599.31;5000059;28;20401;-82
2023/05/09 01:10:47;;;;;;;;;;;;;;;15.45;nan;102596.16;4997284;28;20402;-83
2023/05/09 01:16:24;;;;;;;;;;;;;;;15.36;nan;102593.78;5004023;28;20342;-83
2023/05/09 01:19:09;;;;;;;;;;;;;;;15.34;nan;102597.78;5000824;28;19921;-82
2023/05/09 01:21:35;;;;;;;;;;;;;;;15.31;nan;102604.50;4999139;28;19929;-82
2023/05/09 01:24:19;;;;;;;;;;;;;;;15.26;nan;102596.28;4997245;28;19929;-82
2023/05/09 01:27:03;;;;;;;;;;;;;;;15.19;nan;102594.72;5001747;28;19922;-82
2023/05/09 01:32:35;;;;;;;;;;;;;;;14.93;nan;102585.22;4998471;28;19928;-82
2023/05/09 01:35:01;;;;;;;;;;;;;;;14.85;nan;102582.81;4998859;28;20007;-82
2023/05/09 01:37:29;;;;;;;;;;;;;;;14.81;nan;102579.78;4998901;28;19932;-82
2023/05/09 01:39:56;;;;;;;;;;;;;;;14.75;nan;102589.63;4999794;28;20371;-82
2023/05/09 01:42:21;;;;;;;;;;;;;;;14.70;nan;102584.06;4998355;28;19925;-82
2023/05/09 01:44:48;;;;;;;;;;;;;;;14.62;nan;102589.81;4998248;28;19956;-82
2023/05/09 01:47:15;;;;;;;;;;;;;;;14.55;nan;102581.00;5000154;28;19976;-82
2023/05/09 01:49:41;;;;;;;;;;;;;;;14.47;nan;102579.44;5000484;28;19921;-82
2023/05/09 01:52:08;;;;;;;;;;;;;;;14.39;nan;102577.06;4999203;28;20407;-82
2023/05/09 01:54:34;;;;;;;;;;;;;;;14.32;nan;102575.47;4998409;28;20010;-83
2023/05/09 01:57:02;;;;;;;;;;;;;;;14.25;nan;102569.38;4998070;28;19925;-82
2023/05/09 01:59:28;;;;;;;;;;;;;;;14.23;nan;102568.78;5002013;28;20012;-82
2023/05/09 02:01:54;;;;;;;;;;;;;;;14.19;nan;102568.41;4999220;28;19993;-82
2023/05/09 02:04:20;;;;;;;;;;;;;;;14.09;nan;102574.34;5003670;28;19983;-83
2023/05/09 02:06:49;;;;;;;;;;;;;;;14.00;nan;102572.97;4999028;28;19928;-82
2023/05/09 02:09:15;;;;;;;;;;;;;;;13.96;nan;102568.28;4997524;28;20020;-82
2023/05/09 02:11:40;;;;;;;;;;;;;;;13.93;nan;102566.88;4999257;28;20025;-83
2023/05/09 02:14:06;;;;;;;;;;;;;;;13.87;nan;102568.59;4997815;28;20404;-82
2023/05/09 02:16:31;;;;;;;;;;;;;;;13.80;nan;102564.31;5002364;28;19932;-82
2023/05/09 02:18:56;;;;;;;;;;;;;;;13.72;nan;102561.94;5005163;28;19925;-82
2023/05/09 02:21:22;;;;;;;;;;;;;;;13.64;nan;102559.53;5003058;28;19921;-82
2023/05/09 02:23:47;;;;;;;;;;;;;;;13.57;nan;102560.44;5000896;28;19927;-82
2023/05/09 02:26:13;;;;;;;;;;;;;;;13.51;nan;102561.34;5001546;28;19921;-82
2023/05/09 02:28:39;;;;;;;;;;;;;;;13.49;nan;102554.53;5004997;28;19921;-82
2023/05/09 02:31:05;;;;;;;;;;;;;;;13.47;nan;102552.06;5003380;28;19927;-82
2023/05/09 02:33:33;;;;;;;;;;;;;;;13.43;nan;102558.09;5005494;28;19921;-82
2023/05/09 02:35:59;;;;;;;;;;;;;;;13.39;nan;102554.22;5003406;28;20064;-82
2023/05/09 02:38:26;;;;;;;;;;;;;;;13.34;nan;102554.88;5003666;28;20303;-82
2023/05/09 02:40:51;;;;;;;;;;;;;;;13.29;nan;102552.06;5010418;28;20055;-82
2023/05/09 02:43:17;;;;;;;;;;;;;;;13.23;nan;102548.34;5005196;28;20379;-82
2023/05/09 02:45:42;;;;;;;;;;;;;;;13.17;nan;102554.59;5005169;28;19929;-82
2023/05/09 02:48:08;;;;;;;;;;;;;;;13.11;nan;102549.28;5002700;28;19944;-82
2023/05/09 02:50:33;;;;;;;;;;;;;;;13.04;nan;102548.50;5002818;28;20173;-82
2023/05/09 02:52:58;;;;;;;;;;;;;;;12.95;nan;102551.50;5000684;28;19921;-82
2023/05/09 02:55:24;;;;;;;;;;;;;;;12.93;nan;102553.59;5008683;28;19929;-82
2023/05/09 02:57:49;;;;;;;;;;;;;;;12.92;nan;102549.22;5006435;28;19929;-82
2023/05/09 03:00:16;;;;;;;;;;;;;;;12.88;nan;102547.19;5003124;28;19929;-82
2023/05/09 03:02:42;;;;;;;;;;;;;;;12.85;nan;102556.53;4998649;28;20358;-82
2023/05/09 03:05:07;;;;;;;;;;;;;;;12.83;nan;102553.25;5004976;28;20015;-82
2023/05/09 03:07:33;;;;;;;;;;;;;;;12.78;nan;102557.63;5005703;28;20111;-82
2023/05/09 03:09:58;;;;;;;;;;;;;;;12.73;nan;102552.06;5006349;28;19917;-82
2023/05/09 03:12:24;;;;;;;;;;;;;;;12.72;nan;102564.69;5005650;28;20501;-82
2023/05/09 03:14:49;;;;;;;;;;;;;;;12.71;nan;102557.66;5005298;28;19933;-82
2023/05/09 03:17:20;;;;;;;;;;;;;;;12.68;nan;102555.41;5007385;28;20028;-82
2023/05/09 03:19:45;;;;;;;;;;;;;;;12.64;nan;102556.91;5005424;28;20536;-82
2023/05/09 03:22:11;;;;;;;;;;;;;;;12.57;nan;102559.66;5009489;28;20113;-82
2023/05/09 03:24:36;;;;;;;;;;;;;;;12.54;nan;102552.00;5003437;28;20287;-82
2023/05/09 03:27:01;;;;;;;;;;;;;;;12.54;nan;102560.06;5007343;28;20124;-82
2023/05/09 03:29:27;;;;;;;;;;;;;;;12.53;nan;102557.59;4994972;28;19921;-81
2023/05/09 03:31:52;;;;;;;;;;;;;;;12.51;nan;102551.59;5003965;28;19925;-81
2023/05/09 03:34:17;;;;;;;;;;;;;;;12.49;nan;102556.38;5000107;28;19925;-81
2023/05/09 03:36:43;;;;;;;;;;;;;;;12.48;nan;102549.34;4999755;28;19952;-81
2023/05/09 03:39:08;;;;;;;;;;;;;;;12.47;nan;102558.47;4998869;28;20330;-81
2023/05/09 03:41:35;;;;;;;;;;;;;;;12.45;nan;102542.56;5000142;28;20012;-81
2023/05/09 03:44:00;;;;;;;;;;;;;;;12.42;nan;102551.06;4996887;28;19921;-81
2023/05/09 03:46:26;;;;;;;;;;;;;;;12.37;nan;102549.00;5004675;28;19976;-81
2023/05/09 03:48:51;;;;;;;;;;;;;;;12.34;nan;102554.81;5008266;28;20247;-81
2023/05/09 03:51:16;;;;;;;;;;;;;;;12.34;nan;102557.50;5001832;28;19925;-81
2023/05/09 03:53:46;;;;;;;;;;;;;;;12.35;nan;102542.19;5004652;28;19928;-81
2023/05/09 03:56:11;;;;;;;;;;;;;;;12.37;nan;102554.38;5006838;28;20068;-81
2023/05/09 03:58:36;;;;;;;;;;;;;;;12.37;nan;102554.38;5011995;28;20406;-82
2023/05/09 04:01:02;;;;;;;;;;;;;;;12.40;nan;102556.66;5002611;28;19928;-81
2023/05/09 04:03:27;;;;;;;;;;;;;;;12.44;nan;102553.53;5001667;28;19917;-81
2023/05/09 04:05:52;;;;;;;;;;;;;;;12.48;nan;102557.41;5008208;28;19948;-81
2023/05/09 04:08:18;;;;;;;;;;;;;;;12.51;nan;102563.19;5005849;28;19923;-82
2023/05/09 04:10:43;;;;;;;;;;;;;;;12.57;nan;102553.44;5002983;28;20417;-81
2023/05/09 04:13:08;;;;;;;;;;;;;;;12.61;nan;102554.66;5000924;28;19921;-81
2023/05/09 04:15:34;;;;;;;;;;;;;;;12.67;nan;102559.16;5007287;28;19969;-82
2023/05/09 04:17:59;;;;;;;;;;;;;;;12.73;nan;102558.25;5005433;28;19921;-82
2023/05/09 04:20:24;;;;;;;;;;;;;;;12.79;nan;102556.59;5008276;28;20387;-82
2023/05/09 04:22:50;;;;;;;;;;;;;;;12.87;nan;102554.44;5000858;28;20536;-81
2023/05/09 04:25:15;;;;;;;;;;;;;;;12.94;nan;102559.78;5001490;28;20293;-82
2023/05/09 04:27:41;;;;;;;;;;;;;;;13.00;nan;102554.34;5006641;28;20406;-82
2023/05/09 04:30:06;;;;;;;;;;;;;;;13.08;nan;102560.47;5002829;28;19989;-82
2023/05/09 04:32:32;;;;;;;;;;;;;;;13.19;nan;102557.94;4998420;28;20355;-81
2023/05/09 04:34:57;;;;;;;;;;;;;;;13.33;nan;102555.13;4997571;28;20387;-82
2023/05/09 04:37:23;;;;;;;;;;;;;;;13.46;nan;102554.97;5006111;28;20309;-82
2023/05/09 04:39:48;;;;;;;;;;;;;;;13.60;nan;102554.59;5003295;28;20295;-81
2023/05/09 04:42:13;;;;;;;;;;;;;;;13.72;nan;102554.69;4999862;28;20288;-81
2023/05/09 04:44:38;;;;;;;;;;;;;;;13.85;nan;102556.41;5006206;28;19983;-82
2023/05/09 04:47:04;;;;;;;;;;;;;;;13.97;nan;102549.19;5005655;28;19925;-82
2023/05/09 04:49:29;;;;;;;;;;;;;;;14.09;nan;102550.06;4997527;28;20061;-81
2023/05/09 04:51:55;;;;;;;;;;;;;;;14.24;nan;102549.69;5007850;28;19972;-82
2023/05/09 04:54:20;;;;;;;;;;;;;;;14.37;nan;102554.06;5001896;28;19926;-82
2023/05/09 04:56:45;;;;;;;;;;;;;;;14.47;nan;102555.16;5001661;28;19936;-82
2023/05/09 04:59:11;;;;;;;;;;;;;;;14.59;nan;102555.22;5004685;28;19985;-82
2023/05/09 05:01:36;;;;;;;;;;;;;;;14.70;nan;102561.69;4997298;28;19964;-82
2023/05/09 05:04:01;;;;;;;;;;;;;;;14.80;nan;102564.63;5003092;28;20511;-82
2023/05/09 05:06:27;;;;;;;;;;;;;;;14.91;nan;102561.16;5002329;28;19921;-81
2023/05/09 05:08:52;;;;;;;;;;;;;;;15.05;nan;102567.13;5002482;28;19921;-82
2023/05/09 05:11:18;;;;;;;;;;;;;;;15.14;nan;102564.91;5000185;28;19953;-82
2023/05/09 05:13:43;;;;;;;;;;;;;;;15.23;nan;102564.31;5006095;28;20355;-82
2023/05/09 05:16:09;;;;;;;;;;;;;;;15.30;nan;102565.03;5003878;28;19930;-82
2023/05/09 05:18:34;;;;;;;;;;;;;;;15.39;nan;102563.59;5001677;28;19991;-82
2023/05/09 05:20:59;;;;;;;;;;;;;;;15.51;nan;102566.31;5005568;28;19933;-81
2023/05/09 05:23:25;;;;;;;;;;;;;;;15.60;nan;102556.78;5000331;28;19917;-82
2023/05/09 05:25:51;;;;;;;;;;;;;;;15.73;nan;102550.31;5006930;28;20321;-82
2023/05/09 05:28:16;;;;;;;;;;;;;;;15.85;nan;102548.41;5006980;28;19971;-82
2023/05/09 05:30:42;;;;;;;;;;;;;;;16.02;nan;102556.59;5005702;28;20008;-82
2023/05/09 05:33:07;;;;;;;;;;;;;;;16.13;nan;102555.72;5008674;28;19917;-82
2023/05/09 05:35:32;;;;;;;;;;;;;;;16.23;nan;102546.97;5001590;28;19930;-82
2023/05/09 05:37:58;;;;;;;;;;;;;;;16.34;nan;102543.41;5007701;28;19963;-82
2023/05/09 05:40:23;;;;;;;;;;;;;;;16.51;nan;102541.53;5006859;28;19978;-82
2023/05/09 05:42:48;;;;;;;;;;;;;;;16.63;nan;102541.47;5007161;28;19932;-82
2023/05/09 05:45:14;;;;;;;;;;;;;;;16.69;nan;102545.09;5009518;28;19949;-82
2023/05/09 05:47:39;;;;;;;;;;;;;;;16.82;nan;102539.38;5005788;28;20438;-82
2023/05/09 05:50:07;;;;;;;;;;;;;;;16.98;nan;102537.72;5002176;28;20479;-82
2023/05/09 05:52:32;;;;;;;;;;;;;;;17.14;nan;102534.19;5003690;28;20288;-81
2023/05/09 05:54:57;;;;;;;;;;;;;;;17.21;nan;102538.34;5013363;28;19993;-82
2023/05/09 05:57:23;;;;;;;;;;;;;;;17.26;nan;102529.50;5010396;28;20402;-81
2023/05/09 05:59:49;;;;;;;;;;;;;;;17.35;nan;102536.09;5004696;28;20379;-82
2023/05/09 06:02:15;;;;;;;;;;;;;;;17.42;nan;102536.78;5006959;28;19923;-81
2023/05/09 06:04:40;;;;;;;;;;;;;;;17.57;nan;102522.56;5008466;28;19921;-82
2023/05/09 06:07:06;;;;;;;;;;;;;;;17.66;nan;102526.50;5010830;28;19917;-81
2023/05/09 06:09:31;;;;;;;;;;;;;;;17.76;nan;102532.06;5005791;28;19932;-81
2023/05/09 06:11:56;;;;;;;;;;;;;;;17.82;nan;102524.81;5010166;28;19918;-82
2023/05/09 06:14:22;;;;;;;;;;;;;;;17.86;nan;102527.84;5008346;28;19917;-81
2023/05/09 06:16:47;;;;;;;;;;;;;;;17.87;nan;102524.88;5009169;28;19925;-82
2023/05/09 06:19:12;;;;;;;;;;;;;;;17.95;nan;102529.84;5006225;28;19918;-82
2023/05/09 06:21:38;;;;;;;;;;;;;;;18.09;nan;102524.84;5011016;28;20379;-81
2023/05/09 06:24:03;;;;;;;;;;;;;;;18.19;nan;102516.00;5004769;28;19917;-81
2023/05/09 06:26:29;;;;;;;;;;;;;;;18.27;nan;102513.63;5008731;28;19918;-81
2023/05/09 06:28:54;;;;;;;;;;;;;;;18.43;nan;102509.97;5004077;28;19918;-81
2023/05/09 06:31:20;;;;;;;;;;;;;;;18.50;nan;102517.94;5011838;28;19921;-82
2023/05/09 06:33:45;;;;;;;;;;;;;;;18.52;nan;102510.34;5003537;28;20346;-81
2023/05/09 06:36:11;;;;;;;;;;;;;;;18.58;nan;102508.47;5007924;28;19936;-81
2023/05/09 06:38:36;;;;;;;;;;;;;;;18.61;nan;102497.09;5001775;28;19956;-81
2023/05/09 06:41:01;;;;;;;;;;;;;;;18.74;nan;102499.41;5008513;28;20283;-81
2023/05/09 06:43:27;;;;;;;;;;;;;;;18.87;nan;102498.16;5009983;28;19952;-81
2023/05/09 06:45:52;;;;;;;;;;;;;;;18.93;nan;102500.63;5008050;28;20630;-81
2023/05/09 06:48:17;;;;;;;;;;;;;;;18.99;nan;102504.19;5002446;28;20864;-82
2023/05/09 06:50:43;;;;;;;;;;;;;;;19.05;nan;102505.06;5006235;28;20411;-81
2023/05/09 06:53:08;;;;;;;;;;;;;;;19.11;nan;102502.09;5006576;28;20520;-81
2023/05/09 06:55:33;;;;;;;;;;;;;;;19.12;nan;102522.75;5006954;28;19921;-82
2023/05/09 06:57:59;;;;;;;;;;;;;;;19.10;nan;102505.91;5007994;28;20156;-80
2023/05/09 07:00:24;;;;;;;;;;;;;;;19.12;nan;102519.22;5004791;28;20551;-81
2023/05/09 07:02:49;;;;;;;;;;;;;;;19.12;nan;102511.88;5006781;28;20318;-81
2023/05/09 07:05:15;;;;;;;;;;;;;;;19.17;nan;102490.19;5006479;28;19921;-82
2023/05/09 07:07:40;;;;;;;;;;;;;;;19.26;nan;102494.03;5007236;28;20288;-81
2023/05/09 07:10:06;;;;;;;;;;;;;;;19.34;nan;102487.28;5006221;28;19953;-81
2023/05/09 07:12:32;;;;;;;;;;;;;;;19.37;nan;102484.03;5005482;28;20350;-82
2023/05/09 07:14:57;;;;;;;;;;;;;;;19.50;nan;102486.25;5004626;28;20395;-81
2023/05/09 07:17:23;;;;;;;;;;;;;;;19.63;nan;102479.56;5002020;28;20021;-81
2023/05/09 07:19:48;;;;;;;;;;;;;;;19.80;nan;102482.06;5006952;28;19932;-82
2023/05/09 07:22:14;;;;;;;;;;;;;;;19.83;nan;102486.94;5005813;28;19931;-81
2023/05/09 07:24:39;;;;;;;;;;;;;;;19.84;nan;102483.16;5008741;28;19917;-81
2023/05/09 07:27:04;;;;;;;;;;;;;;;19.83;nan;102471.44;5004957;28;19917;-81
2023/05/09 07:29:30;;;;;;;;;;;;;;;19.93;nan;102476.09;5007887;28;20024;-81
2023/05/09 07:31:55;;;;;;;;;;;;;;;20.05;nan;102468.50;5004665;28;19960;-81
2023/05/09 07:34:22;;;;;;;;;;;;;;;20.17;nan;102460.09;5006428;28;19925;-81
2023/05/09 07:36:47;;;;;;;;;;;;;;;20.18;nan;102461.72;5007329;28;20181;-81
2023/05/09 07:39:15;;;;;;;;;;;;;;;20.32;nan;102459.28;5005430;28;20205;-81
2023/05/09 07:41:41;;;;;;;;;;;;;;;20.46;nan;102452.19;5000322;28;19922;-81
2023/05/09 07:44:08;;;;;;;;;;;;;;;20.55;nan;102453.31;5006916;28;19917;-81
2023/05/09 07:46:33;;;;;;;;;;;;;;;20.56;nan;102424.16;5003335;28;19944;-82
2023/05/09 07:48:59;;;;;;;;;;;;;;;20.70;nan;102427.97;5002492;28;20383;-82
2023/05/09 07:51:24;;;;;;;;;;;;;;;20.76;nan;102426.84;5007167;28;19918;-82
2023/05/09 07:53:50;;;;;;;;;;;;;;;20.81;nan;102418.66;5005900;28;19918;-81
2023/05/09 07:56:15;;;;;;;;;;;;;;;20.88;nan;102418.38;5005684;28;19930;-82
2023/05/09 07:58:40;;;;;;;;;;;;;;;21.03;nan;102423.78;5006359;28;20346;-82
2023/05/09 08:01:06;;;;;;;;;;;;;;;21.10;nan;102403.31;5005412;28;20426;-82
2023/05/09 08:03:31;;;;;;;;;;;;;;;21.22;nan;102399.47;5006261;28;20343;-82
2023/05/09 08:05:56;;;;;;;;;;;;;;;21.28;nan;102393.72;5004958;28;20387;-81
2023/05/09 08:08:22;;;;;;;;;;;;;;;21.30;nan;102398.88;5005363;28;19922;-81
2023/05/09 08:10:47;;;;;;;;;;;;;;;21.44;nan;102382.75;5004473;28;20017;-82
2023/05/09 08:13:13;;;;;;;;;;;;;;;21.45;nan;102378.91;5003724;28;19917;-82
2023/05/09 08:15:38;;;;;;;;;;;;;;;21.52;nan;102373.94;5006331;28;19928;-81
2023/05/09 08:18:05;;;;;;;;;;;;;;;21.54;nan;102371.75;5004647;28;19917;-82
2023/05/09 08:20:30;;;;;;;;;;;;;;;21.49;nan;102369.06;5002238;28;20028;-82
2023/05/09 08:22:56;;;;;;;;;;;;;;;21.57;nan;102352.94;5003091;28;20093;-81
2023/05/09 08:25:21;;;;;;;;;;;;;;;21.67;nan;102358.31;5005834;28;19925;-82
2023/05/09 08:27:46;;;;;;;;;;;;;;;21.66;nan;102348.50;5001615;28;19929;-82
2023/05/09 08:30:12;;;;;;;;;;;;;;;21.73;nan;102350.91;5001342;28;19921;-82
2023/05/09 08:32:37;;;;;;;;;;;;;;;21.94;nan;102349.66;4998440;28;21644;-82
2023/05/09 08:35:03;;;;;;;;;;;;;;;22.06;nan;102348.47;5000222;28;20355;-81
2023/05/09 08:37:28;;;;;;;;;;;;;;;22.21;nan;102346.41;5004480;28;20414;-81
2023/05/09 08:39:54;;;;;;;;;;;;;;;22.35;nan;102327.44;5008066;28;19922;-82
2023/05/09 08:42:21;;;;;;;;;;;;;;;22.54;nan;102336.53;5002115;28;20066;-82
2023/05/09 08:44:47;;;;;;;;;;;;;;;22.66;nan;102336.13;5002684;28;19917;-82
2023/05/09 08:47:12;;;;;;;;;;;;;;;22.56;nan;102334.31;4999688;28;20039;-82
2023/05/09 08:49:39;;;;;;;;;;;;;;;22.60;nan;102329.06;5003260;28;19925;-82
2023/05/09 08:52:04;;;;;;;;;;;;;;;22.65;nan;102328.22;5003051;28;20384;-82
2023/05/09 08:54:30;;;;;;;;;;;;;;;22.71;nan;102316.13;4999588;28;19960;-82
2023/05/09 08:56:56;;;;;;;;;;;;;;;22.75;nan;102311.69;5002687;28;20287;-82
2023/05/09 08:59:23;;;;;;;;;;;;;;;22.84;nan;102307.25;5000570;28;19925;-81
2023/05/09 09:01:49;;;;;;;;;;;;;;;22.91;nan;102302.22;4998929;28;20028;-82
2023/05/09 09:04:14;;;;;;;;;;;;;;;23.04;nan;102287.84;5003345;28;20403;-82
2023/05/09 09:06:40;;;;;;;;;;;;;;;23.17;nan;102291.75;5004745;28;19971;-82
2023/05/09 09:09:07;;;;;;;;;;;;;;;23.30;nan;102287.44;5003628;28;19917;-82
2023/05/09 09:11:33;;;;;;;;;;;;;;;23.35;nan;102280.00;5000007;28;19937;-82
2023/05/09 09:14:00;;;;;;;;;;;;;;;23.53;nan;102283.81;4999455;28;19932;-82
2023/05/09 09:16:26;;;;;;;;;;;;;;;23.72;nan;102281.91;4999046;28;20403;-82
2023/05/09 09:18:53;;;;;;;;;;;;;;;23.88;nan;102282.44;5005194;28;20007;-82
2023/05/09 09:21:19;;;;;;;;;;;;;;;23.93;nan;102276.88;5000632;28;20611;-82
2023/05/09 09:23:48;;;;;;;;;;;;;;;24.10;nan;102281.75;5002668;28;19925;-82
2023/05/09 09:26:13;;;;;;;;;;;;;;;24.10;nan;102279.03;5003143;28;19917;-82
2023/05/09 09:28:39;;;;;;;;;;;;;;;24.09;nan;102272.75;5005902;28;20398;-82
2023/05/09 09:31:24;;;;;;;;;;;;;;;24.09;nan;102264.53;5002987;28;19913;-83
2023/05/09 09:33:50;;;;;;;;;;;;;;;23.99;nan;102269.38;4998881;28;20409;-84
2023/05/09 09:36:15;;;;;;;;;;;;;;;24.03;nan;102265.72;5004040;28;20403;-83
2023/05/09 09:38:44;;;;;;;;;;;;;;;24.15;nan;102253.47;5003285;28;19959;-83
2023/05/09 09:41:11;;;;;;;;;;;;;;;24.34;nan;102259.69;4999136;28;19925;-83
2023/05/09 09:43:36;;;;;;;;;;;;;;;24.46;nan;102256.44;5001628;28;20001;-83
2023/05/09 09:46:03;;;;;;;;;;;;;;;24.45;nan;102254.84;5001005;28;20000;-83
2023/05/09 09:48:32;;;;;;;;;;;;;;;24.45;nan;102249.34;5002267;28;20424;-83
2023/05/09 09:51:07;;;;;;;;;;;;;;;24.57;nan;102242.22;5002716;28;19918;-83
2023/05/09 09:53:37;;;;;;;;;;;;;;;24.61;nan;102251.47;5000212;28;20486;-83
2023/05/09 09:56:03;;;;;;;;;;;;;;;24.68;nan;102242.81;5000482;28;19925;-83
2023/05/09 09:58:33;;;;;;;;;;;;;;;24.74;nan;102247.06;5005090;28;20014;-83
2023/05/09 10:01:09;;;;;;;;;;;;;;;24.83;nan;102225.22;5004923;28;20399;-83
2023/05/09 10:03:35;;;;;;;;;;;;;;;24.90;nan;102225.59;5002145;28;20467;-83
2023/05/09 10:06:01;;;;;;;;;;;;;;;24.92;nan;102243.34;5004121;28;20334;-82
2023/05/09 10:08:26;;;;;;;;;;;;;;;24.84;nan;102224.91;5004056;28;19982;-84
2023/05/09 10:10:51;;;;;;;;;;;;;;;24.92;nan;102228.84;5004306;28;20008;-84
2023/05/09 10:13:17;;;;;;;;;;;;;;;24.97;nan;102235.03;5002326;28;20176;-83
2023/05/09 10:15:42;;;;;;;;;;;;;;;25.02;nan;102214.94;5006248;28;19945;-84
2023/05/09 10:18:09;;;;;;;;;;;;;;;25.17;nan;102205.53;5006510;28;19918;-84
2023/05/09 10:20:38;;;;;;;;;;;;;;;25.34;nan;102216.63;5003756;28;19928;-83
2023/05/09 10:23:05;;;;;;;;;;;;;;;25.44;nan;102208.13;4996432;28;19921;-83
2023/05/09 10:25:33;;;;;;;;;;;;;;;25.53;nan;102197.22;5002560;28;19936;-83
2023/05/09 10:28:00;;;;;;;;;;;;;;;25.65;nan;102210.34;4997336;28;19924;-83
2023/05/09 10:30:31;;;;;;;;;;;;;;;25.75;nan;102190.91;5002051;28;20291;-83
2023/05/09 10:33:01;;;;;;;;;;;;;;;25.81;nan;102211.59;5004643;28;20293;-83
2023/05/09 10:35:28;;;;;;;;;;;;;;;25.94;nan;102202.44;4998439;28;19930;-84
2023/05/09 10:37:55;;;;;;;;;;;;;;;25.95;nan;102198.56;5005478;28;19922;-83
2023/05/09 10:40:21;;;;;;;;;;;;;;;26.02;nan;102198.91;5005630;28;19925;-83
2023/05/09 10:42:46;;;;;;;;;;;;;;;26.12;nan;102195.88;5005035;28;19917;-84
2023/05/09 10:45:12;;;;;;;;;;;;;;;26.18;nan;102194.59;5007272;28;20079;-84
2023/05/09 10:47:38;;;;;;;;;;;;;;;26.14;nan;102184.59;5014659;28;19922;-84
2023/05/09 10:50:06;;;;;;;;;;;;;;;26.14;nan;102179.09;5007144;28;20019;-84
2023/05/09 10:52:32;;;;;;;;;;;;;;;26.18;nan;102180.88;5007893;28;20025;-84
2023/05/09 10:54:59;;;;;;;;;;;;;;;26.30;nan;102158.28;5003267;28;19925;-84
2023/05/09 10:57:26;;;;;;;;;;;;;;;26.37;nan;102166.06;5009970;28;19983;-83
2023/05/09 10:59:53;;;;;;;;;;;;;;;26.38;nan;102167.69;5002144;28;19984;-83
2023/05/09 11:02:20;;;;;;;;;;;;;;;26.37;nan;102157.81;5006922;28;20000;-84
2023/05/09 11:04:45;;;;;;;;;;;;;;;26.50;nan;102156.88;5005987;28;19921;-82
2023/05/09 11:07:26;;;;;;;;;;;;;;;26.52;nan;102167.56;5006991;28;20541;-84
2023/05/09 11:09:52;;;;;;;;;;;;;;;26.49;nan;102136.03;5007534;28;19925;-83
2023/05/09 11:12:19;;;;;;;;;;;;;;;26.66;nan;102127.78;5010108;28;19918;-83
2023/05/09 11:14:50;;;;;;;;;;;;;;;26.77;nan;102142.03;4991456;28;20020;-84
2023/05/09 11:17:21;;;;;;;;;;;;;;;26.80;nan;102147.69;5009277;28;19979;-84
2023/05/09 11:19:47;;;;;;;;;;;;;;;26.72;nan;102123.72;5006941;28;19928;-83
2023/05/09 11:22:18;;;;;;;;;;;;;;;26.72;nan;102109.97;5007834;28;19924;-83
2023/05/09 11:24:49;;;;;;;;;;;;;;;26.75;nan;102117.63;5005647;28;20390;-84
2023/05/09 11:27:22;;;;;;;;;;;;;;;26.95;nan;102109.81;5006141;28;19921;-84
2023/05/09 11:29:55;;;;;;;;;;;;;;;27.13;nan;102111.44;5004429;28;19945;-85
2023/05/09 11:32:25;;;;;;;;;;;;;;;27.22;nan;102116.91;5005784;28;19948;-84
2023/05/09 11:34:51;;;;;;;;;;;;;;;27.34;nan;102106.81;5006223;28;19928;-83
2023/05/09 11:37:19;;;;;;;;;;;;;;;27.50;nan;102109.03;5005473;28;20169;-82
2023/05/09 11:39:55;;;;;;;;;;;;;;;27.54;nan;102115.50;5007504;28;19921;-83
2023/05/09 11:42:22;;;;;;;;;;;;;;;27.51;nan;102099.66;5005044;28;21192;-84
2023/05/09 11:44:47;;;;;;;;;;;;;;;27.50;nan;102095.28;5002595;28;19917;-84
2023/05/09 11:47:13;;;;;;;;;;;;;;;27.61;nan;102088.25;5004689;28;20375;-84
2023/05/09 11:49:42;;;;;;;;;;;;;;;27.72;nan;102088.72;5000056;28;19968;-83
2023/05/09 11:52:07;;;;;;;;;;;;;;;27.86;nan;102079.09;5001782;28;20454;-84
2023/05/09 11:54:32;;;;;;;;;;;;;;;28.01;nan;102080.47;5005417;28;20007;-85
2023/05/09 11:56:59;;;;;;;;;;;;;;;28.06;nan;102060.97;5006907;28;19925;-84
2023/05/09 11:59:25;;;;;;;;;;;;;;;28.10;nan;102061.09;5003612;28;20236;-85
2023/05/09 12:01:50;;;;;;;;;;;;;;;28.07;nan;102064.53;5004317;28;20427;-84
2023/05/09 12:04:15;;;;;;;;;;;;;;;28.05;nan;102062.09;5004995;28;19933;-84
2023/05/09 12:06:45;;;;;;;;;;;;;;;28.07;nan;102053.50;5002219;28;19925;-84
2023/05/09 12:09:11;;;;;;;;;;;;;;;28.05;nan;102064.88;5005088;28;19979;-84
2023/05/09 12:11:37;;;;;;;;;;;;;;;28.00;nan;102049.31;5000943;28;19921;-84
2023/05/09 12:14:02;;;;;;;;;;;;;;;27.93;nan;102046.28;5005044;28;19926;-84
2023/05/09 12:16:27;;;;;;;;;;;;;;;27.85;nan;102030.66;5003830;28;19957;-84
2023/05/09 12:18:53;;;;;;;;;;;;;;;27.96;nan;102034.59;5003657;28;19932;-84
2023/05/09 12:21:19;;;;;;;;;;;;;;;28.02;nan;102038.00;5008174;28;19921;-84
2023/05/09 12:23:45;;;;;;;;;;;;;;;28.07;nan;102037.78;5003920;28;19922;-84
2023/05/09 12:26:11;;;;;;;;;;;;;;;27.99;nan;102031.19;4999781;28;20406;-84
2023/05/09 12:28:37;;;;;;;;;;;;;;;28.10;nan;102025.28;5005111;28;19921;-84
2023/05/09 12:31:03;;;;;;;;;;;;;;;28.25;nan;102010.88;5003563;28;20027;-84
2023/05/09 12:33:29;;;;;;;;;;;;;;;28.48;nan;102000.31;5005701;28;19948;-85
2023/05/09 12:36:06;;;;;;;;;;;;;;;28.73;nan;102009.50;5000449;28;20085;-85
2023/05/09 12:38:32;;;;;;;;;;;;;;;28.79;nan;101999.84;5003980;28;20415;-84
2023/05/09 12:41:01;;;;;;;;;;;;;;;28.75;nan;101994.22;5002128;28;19928;-84
2023/05/09 12:43:28;;;;;;;;;;;;;;;28.67;nan;102008.06;5001355;28;19925;-84
2023/05/09 12:45:54;;;;;;;;;;;;;;;28.71;nan;101998.78;5005468;28;20307;-84
2023/05/09 12:48:22;;;;;;;;;;;;;;;28.80;nan;102001.44;5000119;28;19926;-84
2023/05/09 12:50:47;;;;;;;;;;;;;;;28.88;nan;101995.03;5007964;28;19937;-83
2023/05/09 12:53:21;;;;;;;;;;;;;;;28.89;nan;101997.47;5003720;28;19917;-84
2023/05/09 12:55:47;;;;;;;;;;;;;;;28.88;nan;101987.56;4988535;28;20431;-85
2023/05/09 12:58:13;;;;;;;;;;;;;;;28.93;nan;101980.25;5003394;28;19917;-85
2023/05/09 13:00:42;;;;;;;;;;;;;;;28.94;nan;101966.09;4995022;28;19948;-84
2023/05/09 13:03:28;;;;;;;;;;;;;;;28.99;nan;101967.81;4999356;28;19925;-85